createdAt,value
2022-11-02T02:01:38.840Z,46.08
2022-11-02T02:02:38.843Z,46.08
2022-11-02T02:03:39.924Z,46.08
2022-11-02T02:04:39.922Z,45.28
2022-11-02T02:05:39.931Z,44.96
2022-11-02T02:06:39.894Z,45.28
2022-11-02T02:07:39.880Z,45.44
2022-11-02T02:08:39.883Z,46.73
2022-11-02T02:09:39.860Z,45.44
2022-11-02T02:10:39.831Z,45.28
2022-11-02T02:11:39.879Z,46.41
2022-11-02T02:12:39.839Z,45.60
2022-11-02T02:13:39.781Z,45.28
2022-11-02T02:14:39.756Z,49.47
2022-11-02T02:15:39.782Z,48.02
2022-11-02T02:16:39.873Z,46.57
2022-11-02T02:17:39.737Z,47.53
2022-11-02T02:18:39.750Z,46.25
2022-11-02T02:19:39.716Z,46.08
2022-11-02T02:20:39.714Z,49.95
2022-11-02T02:21:39.802Z,47.05
2022-11-02T02:22:39.808Z,47.21
2022-11-02T02:23:39.778Z,47.70
2022-11-02T02:24:39.760Z,46.08
2022-11-02T02:25:39.743Z,47.86
2022-11-02T02:26:39.776Z,47.37
2022-11-02T02:27:39.855Z,47.37
2022-11-02T02:28:39.707Z,48.02
2022-11-02T02:29:39.794Z,46.89
2022-11-02T02:30:39.722Z,47.21
2022-11-02T02:31:39.823Z,47.70
2022-11-02T02:32:39.707Z,47.05
2022-11-02T02:33:39.690Z,47.70
2022-11-02T02:34:39.608Z,48.66
2022-11-02T02:35:39.767Z,49.31
2022-11-02T02:36:39.678Z,47.53
2022-11-02T02:37:39.769Z,47.53
2022-11-02T02:38:39.685Z,45.92
2022-11-02T02:39:39.660Z,45.76
2022-11-02T02:40:39.657Z,47.21
2022-11-02T02:41:39.718Z,49.63
2022-11-02T02:42:39.640Z,47.53
2022-11-02T02:43:39.609Z,46.73
2022-11-02T02:44:39.698Z,47.70
2022-11-02T02:45:39.613Z,45.76
2022-11-02T02:46:42.620Z,45.92
2022-11-02T02:47:39.606Z,46.57
2022-11-02T02:48:40.532Z,47.05
2022-11-02T02:49:39.577Z,46.41
2022-11-02T02:50:39.513Z,46.89
2022-11-02T02:51:39.507Z,46.73
2022-11-02T02:52:39.486Z,47.21
2022-11-02T02:53:39.474Z,48.50
2022-11-02T02:54:39.497Z,47.21
2022-11-02T02:55:39.514Z,46.89
2022-11-02T02:56:39.500Z,46.73
2022-11-02T02:57:39.497Z,47.53
2022-11-02T02:58:39.461Z,52.53
2022-11-02T02:59:39.546Z,49.79
2022-11-02T03:00:39.686Z,47.05
2022-11-02T03:01:39.596Z,46.08
2022-11-02T03:02:39.509Z,45.92
2022-11-02T03:03:39.497Z,45.76
2022-11-02T03:04:40.499Z,48.34
2022-11-02T03:05:39.487Z,49.79
2022-11-02T03:06:39.559Z,47.37
2022-11-02T03:07:39.481Z,48.34
2022-11-02T03:08:39.450Z,50.60
2022-11-02T03:09:39.472Z,48.82
2022-11-02T03:10:39.430Z,48.66
2022-11-02T03:11:39.466Z,46.89
2022-11-02T03:12:39.362Z,49.15
2022-11-02T03:13:39.360Z,46.57
2022-11-02T03:14:39.321Z,46.57
2022-11-02T03:15:39.271Z,48.18
2022-11-02T03:16:40.191Z,46.25
2022-11-02T03:17:39.296Z,49.47
2022-11-02T03:18:39.398Z,47.53
2022-11-02T03:19:39.385Z,51.88
2022-11-02T03:20:39.356Z,46.89
2022-11-02T03:21:39.353Z,48.02
2022-11-02T03:22:39.423Z,48.50
2022-11-02T03:23:39.330Z,46.25
2022-11-02T03:24:39.368Z,47.53
2022-11-02T03:25:39.398Z,47.37
2022-11-02T03:26:39.822Z,49.31
2022-11-02T03:27:39.437Z,48.66
2022-11-02T03:28:39.286Z,50.43
2022-11-02T03:29:39.331Z,48.18
2022-11-02T03:30:39.349Z,46.41
2022-11-02T03:31:39.302Z,46.08
2022-11-02T03:32:39.235Z,46.57
2022-11-02T03:33:39.242Z,47.53
2022-11-02T03:34:39.202Z,48.50
2022-11-02T03:35:39.180Z,49.47
2022-11-02T03:36:39.151Z,46.89
2022-11-02T03:37:39.219Z,48.02
2022-11-02T03:38:39.401Z,49.95
2022-11-02T03:39:39.280Z,49.47
2022-11-02T03:40:39.231Z,50.43
2022-11-02T03:41:39.248Z,49.63
2022-11-02T03:42:39.194Z,49.95
2022-11-02T03:43:39.186Z,48.66
2022-11-02T03:44:39.262Z,50.76
2022-11-02T03:45:39.173Z,49.47
2022-11-02T03:46:39.209Z,52.37
2022-11-02T03:47:39.147Z,50.60
2022-11-02T03:48:39.136Z,50.11
2022-11-02T03:49:39.244Z,52.05
2022-11-02T03:50:39.168Z,49.47
2022-11-02T03:51:39.088Z,48.02
2022-11-02T03:52:39.060Z,49.31
2022-11-02T03:53:39.072Z,50.43
2022-11-02T03:54:39.122Z,53.33
2022-11-02T03:55:39.248Z,50.76
2022-11-02T03:56:39.140Z,49.63
2022-11-02T03:57:39.181Z,48.98
2022-11-02T03:58:39.111Z,51.88
2022-11-02T03:59:39.192Z,50.60
2022-11-02T04:00:39.056Z,48.66
2022-11-02T04:01:39.288Z,50.60
2022-11-02T04:02:39.163Z,51.40
2022-11-02T04:03:39.051Z,51.40
2022-11-02T04:04:39.052Z,53.01
2022-11-02T04:05:39.053Z,52.05
2022-11-02T04:06:39.127Z,49.31
2022-11-02T04:07:39.003Z,49.95
2022-11-02T04:08:38.953Z,49.95
2022-11-02T04:09:39.042Z,52.21
2022-11-02T04:10:38.912Z,50.11
2022-11-02T04:11:38.979Z,54.30
2022-11-02T04:12:38.901Z,48.98
2022-11-02T04:13:39.006Z,53.33
2022-11-02T04:14:39.048Z,52.05
2022-11-02T04:15:39.001Z,49.95
2022-11-02T04:16:39.041Z,49.63
2022-11-02T04:17:38.943Z,49.15
2022-11-02T04:18:39.028Z,50.27
2022-11-02T04:19:38.944Z,51.72
2022-11-02T04:20:39.022Z,50.43
2022-11-02T04:21:38.940Z,51.72
2022-11-02T04:22:39.082Z,51.40
2022-11-02T04:23:38.946Z,50.76
2022-11-02T04:24:38.891Z,52.85
2022-11-02T04:25:38.940Z,52.21
2022-11-02T04:26:38.896Z,51.24
2022-11-02T04:27:38.915Z,53.98
2022-11-02T04:28:38.898Z,54.46
2022-11-02T04:29:38.784Z,54.46
2022-11-02T04:30:38.794Z,51.72
2022-11-02T04:31:38.792Z,53.82
2022-11-02T04:32:38.787Z,54.79
2022-11-02T04:33:38.895Z,54.14
2022-11-02T04:34:38.739Z,53.98
2022-11-02T04:35:38.812Z,51.56
2022-11-02T04:36:38.749Z,51.72
2022-11-02T04:37:38.925Z,53.01
2022-11-02T04:38:38.888Z,54.30
2022-11-02T04:39:38.875Z,52.05
2022-11-02T04:40:38.825Z,54.62
2022-11-02T04:41:38.772Z,54.30
2022-11-02T04:42:38.865Z,54.30
2022-11-02T04:43:38.800Z,52.37
2022-11-02T04:44:38.862Z,54.79
2022-11-02T04:45:38.762Z,53.33
2022-11-02T04:46:38.737Z,53.33
2022-11-02T04:47:38.778Z,53.98
2022-11-02T04:48:38.738Z,55.11
2022-11-02T04:49:59.795Z,54.62
2022-11-02T04:50:38.666Z,55.75
2022-11-02T04:51:38.735Z,53.98
2022-11-02T04:53:01.487Z,53.98
2022-11-02T04:53:38.597Z,53.98
2022-11-02T04:54:38.635Z,53.17
2022-11-02T04:55:38.637Z,53.82
2022-11-02T04:56:38.622Z,53.33
2022-11-02T04:57:38.791Z,53.50
2022-11-02T04:58:38.619Z,54.79
2022-11-02T04:59:38.561Z,55.43
2022-11-02T05:00:38.619Z,51.72
2022-11-02T05:01:38.729Z,52.37
2022-11-02T05:02:38.864Z,53.50
2022-11-02T05:03:38.654Z,52.85
2022-11-02T05:04:38.745Z,51.72
2022-11-02T05:05:38.602Z,53.98
2022-11-02T05:06:38.863Z,53.50
2022-11-02T05:07:38.648Z,54.46
2022-11-02T05:08:38.630Z,53.82
2022-11-02T05:09:38.621Z,53.33
2022-11-02T05:10:38.581Z,55.43
2022-11-02T05:11:38.604Z,53.50
2022-11-02T05:12:38.572Z,52.37
2022-11-02T05:13:38.557Z,52.85
2022-11-02T05:14:38.575Z,54.62
2022-11-02T05:15:38.609Z,54.46
2022-11-02T05:16:38.577Z,55.59
2022-11-02T05:17:38.624Z,53.82
2022-11-02T05:18:38.653Z,55.91
2022-11-02T05:19:38.548Z,56.24
2022-11-02T05:20:38.561Z,54.95
2022-11-02T05:21:38.550Z,57.69
2022-11-02T05:22:38.478Z,55.43
2022-11-02T05:23:59.452Z,56.07
2022-11-02T05:24:38.426Z,56.40
2022-11-02T05:25:38.583Z,56.40
2022-11-02T05:26:38.408Z,55.11
2022-11-02T05:27:38.388Z,56.24
2022-11-02T05:28:38.523Z,56.40
2022-11-02T05:29:38.605Z,55.27
2022-11-02T05:30:38.358Z,56.40
2022-11-02T05:31:38.589Z,57.69
2022-11-02T05:32:38.460Z,56.72
2022-11-02T05:33:38.501Z,55.91
2022-11-02T05:34:38.488Z,54.79
2022-11-02T05:35:38.432Z,56.40
2022-11-02T05:36:38.371Z,56.07
2022-11-02T05:37:38.422Z,55.11
2022-11-02T05:39:38.345Z,56.07
2022-11-02T05:40:38.389Z,57.20
2022-11-02T05:41:38.412Z,56.07
2022-11-02T05:42:38.319Z,53.82
2022-11-02T05:43:38.381Z,54.95
2022-11-02T05:44:38.446Z,58.33
2022-11-02T05:45:38.295Z,57.69
2022-11-02T05:46:38.348Z,57.04
2022-11-02T05:47:38.303Z,57.52
2022-11-02T05:48:38.271Z,56.24
2022-11-02T05:49:38.260Z,56.88
2022-11-02T05:50:38.275Z,57.52
2022-11-02T05:51:38.212Z,55.75
2022-11-02T05:52:38.234Z,56.07
2022-11-02T05:53:38.182Z,55.11
2022-11-02T05:54:38.205Z,57.04
2022-11-02T05:55:38.330Z,56.56
2022-11-02T05:56:38.228Z,54.46
2022-11-02T05:57:38.235Z,55.59
2022-11-02T05:58:38.266Z,57.36
2022-11-02T05:59:38.187Z,56.56
2022-11-02T06:00:38.172Z,57.20
2022-11-02T06:01:38.360Z,54.95
2022-11-02T06:02:38.286Z,56.07
2022-11-02T06:03:38.138Z,56.72
2022-11-02T06:04:38.250Z,57.69
2022-11-02T06:05:38.286Z,56.24
2022-11-02T06:06:38.408Z,55.43
2022-11-02T06:07:38.237Z,56.56
2022-11-02T06:08:38.247Z,54.95
2022-11-02T06:09:38.137Z,55.43
2022-11-02T06:10:38.217Z,57.52
2022-11-02T06:11:38.302Z,57.20
2022-11-02T06:12:38.145Z,55.27
2022-11-02T06:13:38.295Z,55.75
2022-11-02T06:14:38.173Z,56.07
2022-11-02T06:15:38.101Z,59.62
2022-11-02T06:16:38.146Z,57.36
2022-11-02T06:17:38.139Z,56.72
2022-11-02T06:18:39.072Z,57.52
2022-11-02T06:19:38.135Z,57.04
2022-11-02T06:20:38.111Z,58.01
2022-11-02T06:21:38.025Z,56.72
2022-11-02T06:22:38.120Z,57.52
2022-11-02T06:23:38.235Z,59.14
2022-11-02T06:24:37.985Z,58.49
2022-11-02T06:25:38.136Z,58.49
2022-11-02T06:26:38.050Z,60.10
2022-11-02T06:27:42.147Z,56.56
2022-11-02T06:28:38.943Z,57.85
2022-11-02T06:29:37.926Z,57.36
2022-11-02T06:30:37.962Z,59.30
2022-11-02T06:31:37.963Z,57.85
2022-11-02T06:32:37.969Z,59.30
2022-11-02T06:33:37.953Z,58.97
2022-11-02T06:34:37.991Z,58.49
2022-11-02T06:35:37.937Z,58.33
2022-11-02T06:36:38.139Z,59.94
2022-11-02T06:37:38.032Z,60.75
2022-11-02T06:38:38.008Z,57.85
2022-11-02T06:39:38.094Z,59.46
2022-11-02T06:40:38.032Z,60.10
2022-11-02T06:41:37.930Z,58.01
2022-11-02T06:42:44.909Z,57.69
2022-11-02T06:43:38.953Z,58.17
2022-11-02T06:44:37.917Z,58.49
2022-11-02T06:45:38.032Z,58.49
2022-11-02T06:46:38.008Z,58.33
2022-11-02T06:47:37.945Z,58.17
2022-11-02T06:48:37.955Z,56.72
2022-11-02T06:49:37.935Z,57.69
2022-11-02T06:50:37.905Z,58.01
2022-11-02T06:51:37.959Z,58.33
2022-11-02T06:52:37.973Z,59.14
2022-11-02T06:53:37.782Z,56.40
2022-11-02T06:54:37.797Z,57.69
2022-11-02T06:55:37.905Z,57.52
2022-11-02T06:56:37.849Z,58.17
2022-11-02T06:57:37.781Z,58.01
2022-11-02T06:58:37.737Z,58.33
2022-11-02T06:59:37.736Z,58.17
2022-11-02T07:00:37.768Z,58.17
2022-11-02T07:01:37.890Z,56.24
2022-11-02T07:02:37.728Z,57.04
2022-11-02T07:03:37.847Z,56.56
2022-11-02T07:04:37.695Z,59.78
2022-11-02T07:05:37.761Z,58.97
2022-11-02T07:06:37.832Z,55.75
2022-11-02T07:07:37.788Z,53.50
2022-11-02T07:08:37.883Z,53.82
2022-11-02T07:09:37.788Z,53.66
2022-11-02T07:10:37.805Z,56.56
2022-11-02T07:11:37.733Z,57.04
2022-11-02T07:12:38.042Z,55.27
2022-11-02T07:13:37.830Z,56.07
2022-11-02T07:14:37.757Z,53.66
2022-11-02T07:15:37.726Z,56.07
2022-11-02T07:16:37.788Z,56.56
2022-11-02T07:17:37.779Z,54.62
2022-11-02T07:18:37.770Z,55.75
2022-11-02T07:19:37.685Z,56.07
2022-11-02T07:20:37.787Z,55.43
2022-11-02T07:21:37.671Z,56.56
2022-11-02T07:22:37.683Z,56.07
2022-11-02T07:23:37.736Z,55.59
2022-11-02T07:24:37.628Z,56.56
2022-11-02T07:25:37.665Z,57.20
2022-11-02T07:26:37.626Z,56.07
2022-11-02T07:27:37.629Z,56.56
2022-11-02T07:28:37.668Z,55.11
2022-11-02T07:29:37.662Z,53.01
2022-11-02T07:30:37.621Z,52.85
2022-11-02T07:31:37.646Z,55.59
2022-11-02T07:32:37.648Z,55.91
2022-11-02T07:33:37.603Z,57.69
2022-11-02T07:34:37.517Z,56.56
2022-11-02T07:35:37.498Z,57.52
2022-11-02T07:36:37.510Z,53.98
2022-11-02T07:37:37.667Z,55.11
2022-11-02T07:38:37.471Z,55.27
2022-11-02T07:39:37.539Z,55.27
2022-11-02T07:40:37.496Z,54.46
2022-11-02T07:41:37.443Z,55.75
2022-11-02T07:42:37.499Z,54.46
2022-11-02T07:43:41.365Z,52.37
2022-11-02T07:44:39.494Z,53.66
2022-11-02T07:45:37.453Z,56.07
2022-11-02T07:46:37.497Z,55.11
2022-11-02T07:47:37.506Z,54.62
2022-11-02T07:48:37.515Z,56.56
2022-11-02T07:49:37.510Z,57.20
2022-11-02T07:50:37.569Z,56.07
2022-11-02T07:51:37.509Z,54.46
2022-11-02T07:52:37.487Z,56.24
2022-11-02T07:53:37.552Z,53.66
2022-11-02T07:54:40.703Z,55.59
2022-11-02T07:55:39.547Z,54.79
2022-11-02T07:56:37.460Z,56.24
2022-11-02T07:57:37.471Z,54.46
2022-11-02T07:58:37.455Z,57.20
2022-11-02T07:59:37.445Z,53.01
2022-11-02T08:00:37.505Z,54.14
2022-11-02T08:01:37.428Z,54.46
2022-11-02T08:02:37.537Z,56.40
2022-11-02T08:03:37.381Z,54.62
2022-11-02T08:04:40.769Z,53.66
2022-11-02T08:05:39.485Z,53.98
2022-11-02T08:06:37.291Z,52.69
2022-11-02T08:07:37.334Z,53.98
2022-11-02T08:08:37.287Z,52.05
2022-11-02T08:09:37.360Z,53.66
2022-11-02T08:10:40.178Z,54.46
2022-11-02T08:11:37.315Z,55.75
2022-11-02T08:12:37.315Z,54.62
2022-11-02T08:13:37.326Z,53.66
2022-11-02T08:14:37.365Z,54.95
2022-11-02T08:15:37.343Z,55.27
2022-11-02T08:16:37.572Z,52.85
2022-11-02T08:17:37.311Z,52.85
2022-11-02T08:18:37.353Z,55.91
2022-11-02T08:19:37.245Z,55.75
2022-11-02T08:20:37.281Z,52.21
2022-11-02T08:21:37.248Z,53.01
2022-11-02T08:22:37.368Z,53.82
2022-11-02T08:23:37.207Z,54.62
2022-11-02T08:24:37.220Z,55.43
2022-11-02T08:25:37.617Z,52.85
2022-11-02T08:26:38.746Z,53.98
2022-11-02T08:27:37.276Z,54.95
2022-11-02T08:28:37.220Z,53.66
2022-11-02T08:29:37.187Z,54.30
2022-11-02T08:30:37.206Z,53.98
2022-11-02T08:31:37.184Z,54.30
2022-11-02T08:32:37.102Z,53.17
2022-11-02T08:33:37.177Z,52.85
2022-11-02T08:34:37.108Z,53.33
2022-11-02T08:35:38.100Z,55.91
2022-11-02T08:36:37.072Z,54.46
2022-11-02T08:37:37.074Z,55.43
2022-11-02T08:38:37.101Z,55.91
2022-11-02T08:39:37.082Z,54.62
2022-11-02T08:40:37.055Z,54.46
2022-11-02T08:41:37.051Z,52.53
2022-11-02T08:42:37.052Z,55.43
2022-11-02T08:43:37.042Z,53.66
2022-11-02T08:44:42.265Z,54.62
2022-11-02T08:46:12.469Z,54.30
2022-11-02T08:46:39.057Z,53.50
2022-11-02T08:47:36.985Z,54.46
2022-11-02T08:48:38.087Z,53.66
2022-11-02T08:49:37.172Z,56.24
2022-11-02T08:50:37.142Z,55.43
2022-11-02T08:51:37.085Z,53.98
2022-11-02T08:52:40.512Z,54.79
2022-11-02T08:53:38.000Z,53.82
2022-11-02T08:54:37.004Z,54.46
2022-11-02T08:55:37.015Z,56.56
2022-11-02T08:56:36.998Z,55.27
2022-11-02T08:57:37.059Z,57.20
2022-11-02T08:58:36.973Z,54.79
2022-11-02T08:59:36.990Z,54.62
2022-11-02T09:00:37.018Z,54.14
2022-11-02T09:01:37.009Z,54.46
2022-11-02T09:02:37.055Z,55.43
2022-11-02T09:03:36.986Z,54.95
2022-11-02T09:04:37.049Z,57.36
2022-11-02T09:05:36.920Z,56.56
2022-11-02T09:06:36.892Z,56.88
2022-11-02T09:07:36.907Z,57.52
2022-11-02T09:08:36.809Z,58.17
2022-11-02T09:09:36.849Z,57.36
2022-11-02T09:10:36.813Z,57.52
2022-11-02T09:11:36.834Z,56.24
2022-11-02T09:12:36.777Z,56.07
2022-11-02T09:13:36.782Z,56.40
2022-11-02T09:14:36.769Z,55.75
2022-11-02T09:15:36.858Z,54.46
2022-11-02T09:16:41.184Z,55.11
2022-11-02T09:17:38.041Z,55.43
2022-11-02T09:18:36.865Z,56.24
2022-11-02T09:19:36.805Z,53.01
2022-11-02T09:20:36.912Z,55.11
2022-11-02T09:21:36.857Z,54.95
2022-11-02T09:22:36.853Z,55.59
2022-11-02T09:23:36.902Z,53.66
2022-11-02T09:24:36.814Z,55.43
2022-11-02T09:25:36.846Z,57.20
2022-11-02T09:26:36.832Z,58.65
2022-11-02T09:27:36.863Z,59.30
2022-11-02T09:28:36.849Z,57.36
2022-11-02T09:29:36.811Z,54.14
2022-11-02T09:30:36.685Z,56.40
2022-11-02T09:31:37.694Z,57.36
2022-11-02T09:32:36.669Z,56.07
2022-11-02T09:33:36.805Z,54.14
2022-11-02T09:34:36.721Z,55.43
2022-11-02T09:35:36.700Z,56.07
2022-11-02T09:36:36.638Z,57.04
2022-11-02T09:37:36.767Z,56.56
2022-11-02T09:38:36.719Z,57.85
2022-11-02T09:39:36.791Z,55.59
2022-11-02T09:40:36.751Z,55.91
2022-11-02T09:41:36.723Z,57.52
2022-11-02T09:42:36.656Z,58.49
2022-11-02T09:43:36.740Z,56.40
2022-11-02T09:44:36.670Z,55.27
2022-11-02T09:45:36.695Z,53.33
2022-11-02T09:46:39.938Z,53.82
2022-11-02T09:48:14.894Z,56.40
2022-11-02T09:48:38.600Z,55.75
2022-11-02T09:49:36.665Z,56.24
2022-11-02T09:50:36.726Z,56.56
2022-11-02T09:51:36.640Z,54.46
2022-11-02T09:52:36.654Z,55.59
2022-11-02T09:53:36.779Z,54.79
2022-11-02T09:54:36.610Z,54.62
2022-11-02T09:55:36.538Z,52.69
2022-11-02T09:56:36.570Z,53.66
2022-11-02T09:57:36.508Z,54.95
2022-11-02T09:58:36.662Z,54.79
2022-11-02T09:59:36.695Z,52.85
2022-11-02T10:00:36.506Z,52.53
2022-11-02T10:01:36.611Z,54.30
2022-11-02T10:02:36.643Z,55.11
2022-11-02T10:03:36.587Z,54.14
2022-11-02T10:04:36.580Z,54.79
2022-11-02T10:05:36.557Z,54.14
2022-11-02T10:06:36.486Z,53.50
2022-11-02T10:07:37.446Z,54.14
2022-11-02T10:08:36.582Z,52.05
2022-11-02T10:09:36.468Z,54.30
2022-11-02T10:10:36.546Z,55.59
2022-11-02T10:12:36.479Z,53.17
2022-11-02T10:13:36.553Z,53.50
2022-11-02T10:14:36.437Z,54.30
2022-11-02T10:15:36.440Z,51.56
2022-11-02T10:16:36.524Z,53.50
2022-11-02T10:17:36.491Z,53.33
2022-11-02T10:18:36.901Z,53.17
2022-11-02T10:19:36.379Z,54.79
2022-11-02T10:20:36.389Z,55.11
2022-11-02T10:21:36.332Z,57.69
2022-11-02T10:22:36.337Z,56.72
2022-11-02T10:23:36.536Z,57.20
2022-11-02T10:24:36.550Z,54.46
2022-11-02T10:25:37.781Z,58.01
2022-11-02T10:26:36.563Z,56.88
2022-11-02T10:27:36.630Z,54.62
2022-11-02T10:28:36.587Z,53.82
2022-11-02T10:29:38.778Z,56.56
2022-11-02T10:30:36.357Z,56.56
2022-11-02T10:31:36.324Z,57.85
2022-11-02T10:32:36.406Z,57.36
2022-11-02T10:33:36.314Z,56.40
2022-11-02T10:34:36.331Z,56.40
2022-11-02T10:35:51.393Z,58.33
2022-11-02T10:36:38.220Z,58.01
2022-11-02T10:37:36.342Z,57.04
2022-11-02T10:38:36.302Z,57.04
2022-11-02T10:39:36.258Z,55.43
2022-11-02T10:40:36.285Z,56.56
2022-11-02T10:41:36.346Z,56.07
2022-11-02T10:42:36.248Z,56.40
2022-11-02T10:43:36.262Z,57.04
2022-11-02T10:44:36.147Z,58.17
2022-11-02T10:45:36.236Z,57.36
2022-11-02T10:46:36.164Z,56.40
2022-11-02T10:47:36.154Z,54.30
2022-11-02T10:48:36.127Z,56.07
2022-11-02T10:49:36.201Z,56.56
2022-11-02T10:50:37.121Z,54.30
2022-11-02T10:51:36.086Z,53.98
2022-11-02T10:52:36.167Z,53.82
2022-11-02T10:53:41.258Z,55.43
2022-11-02T10:54:38.077Z,55.75
2022-11-02T10:55:36.147Z,55.11
2022-11-02T10:56:36.182Z,53.66
2022-11-02T10:57:36.162Z,53.33
2022-11-02T10:58:36.135Z,51.56
2022-11-02T10:59:36.117Z,53.50
2022-11-02T11:00:36.055Z,54.79
2022-11-02T11:01:36.168Z,54.46
2022-11-02T11:02:36.180Z,52.53
2022-11-02T11:03:36.134Z,52.37
2022-11-02T11:04:36.280Z,51.24
2022-11-02T11:05:36.102Z,50.43
2022-11-02T11:06:36.082Z,50.27
2022-11-02T11:07:36.031Z,51.72
2022-11-02T11:08:36.020Z,51.40
2022-11-02T11:09:36.055Z,52.85
2022-11-02T11:10:36.032Z,53.66
2022-11-02T11:11:36.032Z,54.46
2022-11-02T11:12:36.001Z,55.11
2022-11-02T11:16:38.001Z,57.20
2022-11-02T11:19:38.611Z,56.07
2022-11-02T11:20:36.957Z,55.75
2022-11-02T11:21:36.013Z,56.88
2022-11-02T11:22:36.012Z,53.01
2022-11-02T11:23:36.051Z,57.52
2022-11-02T11:24:36.027Z,60.26
2022-11-02T11:25:36.106Z,57.69
2022-11-02T11:26:35.934Z,59.14
2022-11-02T11:27:36.007Z,57.20
2022-11-02T11:28:35.948Z,55.59
2022-11-02T11:29:36.079Z,54.95
2022-11-02T11:31:37.920Z,56.56
2022-11-02T11:32:35.934Z,57.36
2022-11-02T11:33:35.894Z,55.43
2022-11-02T11:34:35.945Z,60.10
2022-11-02T11:35:35.855Z,58.01
2022-11-02T11:36:35.832Z,59.46
2022-11-02T11:37:35.820Z,58.33
2022-11-02T11:38:35.892Z,58.17
2022-11-02T11:39:35.796Z,56.72
2022-11-02T11:40:35.824Z,55.27
2022-11-02T11:41:35.813Z,57.52
2022-11-02T11:42:35.773Z,51.88
2022-11-02T11:43:35.902Z,55.91
2022-11-02T11:44:35.910Z,54.95
2022-11-02T11:45:35.852Z,54.79
2022-11-02T11:46:35.978Z,55.43
2022-11-02T11:47:35.828Z,53.66
2022-11-02T11:48:35.857Z,55.75
2022-11-02T11:49:55.062Z,57.04
2022-11-02T11:50:37.774Z,56.40
2022-11-02T11:51:35.800Z,55.43
2022-11-02T11:52:35.866Z,54.95
2022-11-02T11:53:35.772Z,56.07
2022-11-02T11:54:35.743Z,54.95
2022-11-02T11:55:35.721Z,53.50
2022-11-02T11:56:35.722Z,57.36
2022-11-02T11:58:35.688Z,55.75
2022-11-02T11:59:35.638Z,56.72
2022-11-02T12:00:35.599Z,53.98
2022-11-02T12:01:35.807Z,53.50
2022-11-02T12:02:40.873Z,54.95
2022-11-02T12:03:37.611Z,55.11
2022-11-02T12:04:35.617Z,55.27
2022-11-02T12:05:35.653Z,53.82
2022-11-02T12:06:35.668Z,55.43
2022-11-02T12:07:35.673Z,55.75
2022-11-02T12:08:35.646Z,51.88
2022-11-02T12:09:35.629Z,55.91
2022-11-02T12:10:36.678Z,54.79
2022-11-02T12:11:35.660Z,57.85
2022-11-02T12:12:35.652Z,54.46
2022-11-02T12:13:35.633Z,58.49
2022-11-02T12:14:35.605Z,57.20
2022-11-02T12:15:35.526Z,55.59
2022-11-02T12:16:35.554Z,57.69
2022-11-02T12:17:35.465Z,56.88
2022-11-02T12:18:35.774Z,55.43
2022-11-02T12:19:35.561Z,56.07
2022-11-02T12:20:35.531Z,57.69
2022-11-02T12:21:35.564Z,56.24
2022-11-02T12:22:35.587Z,57.52
2022-11-02T12:23:35.828Z,55.75
2022-11-02T12:24:35.532Z,56.40
2022-11-02T12:25:35.622Z,54.79
2022-11-02T12:26:35.562Z,55.27
2022-11-02T12:27:35.477Z,55.91
2022-11-02T12:28:35.493Z,57.04
2022-11-02T12:29:35.570Z,57.36
2022-11-02T12:30:35.503Z,57.04
2022-11-02T12:31:35.560Z,57.36
2022-11-02T12:32:35.480Z,58.97
2022-11-02T12:33:35.461Z,61.55
2022-11-02T12:34:35.524Z,58.49
2022-11-02T12:35:35.506Z,58.01
2022-11-02T12:36:35.875Z,58.65
2022-11-02T12:37:40.861Z,57.36
2022-11-02T12:38:37.343Z,57.36
2022-11-02T12:39:35.397Z,56.40
2022-11-02T12:40:35.421Z,55.91
2022-11-02T12:41:35.387Z,57.04
2022-11-02T12:42:36.813Z,58.01
2022-11-02T12:43:36.327Z,58.33
2022-11-02T12:44:35.341Z,59.46
2022-11-02T12:45:37.413Z,57.04
2022-11-02T12:46:39.047Z,56.72
2022-11-02T12:47:37.329Z,58.17
2022-11-02T12:48:35.351Z,57.85
2022-11-02T12:49:36.243Z,57.69
2022-11-02T12:50:36.434Z,58.65
2022-11-02T12:51:35.325Z,57.04
2022-11-02T12:52:35.447Z,55.43
2022-11-02T12:53:35.316Z,56.56
2022-11-02T12:54:40.557Z,55.59
2022-11-02T12:55:38.889Z,56.88
2022-11-02T12:56:36.304Z,54.79
2022-11-02T12:57:35.321Z,57.69
2022-11-02T12:58:35.261Z,57.20
2022-11-02T12:59:35.197Z,55.91
2022-11-02T13:00:35.238Z,54.30
2022-11-02T13:01:35.382Z,54.46
2022-11-02T13:02:35.392Z,54.62
2022-11-02T13:03:35.388Z,52.37
2022-11-02T13:04:38.698Z,53.98
2022-11-02T13:05:36.159Z,55.11
2022-11-02T13:06:35.195Z,55.27
2022-11-02T13:07:35.239Z,54.95
2022-11-02T13:08:35.219Z,51.56
2022-11-02T13:09:35.245Z,53.82
2022-11-02T13:10:35.198Z,59.30
2022-11-02T13:11:35.346Z,56.40
2022-11-02T13:12:35.180Z,59.14
2022-11-02T13:13:35.186Z,58.81
2022-11-02T13:14:35.213Z,58.17
2022-11-02T13:15:35.160Z,54.46
2022-11-02T13:16:35.178Z,55.43
2022-11-02T13:17:35.190Z,53.17
2022-11-02T13:18:35.079Z,54.46
2022-11-02T13:19:35.023Z,56.56
2022-11-02T13:20:35.186Z,54.46
2022-11-02T13:21:38.592Z,54.46
2022-11-02T13:22:36.045Z,52.69
2022-11-02T13:23:35.014Z,54.46
2022-11-02T13:24:35.089Z,50.11
2022-11-02T13:25:36.091Z,54.14
2022-11-02T13:26:35.083Z,53.82
2022-11-02T13:27:36.994Z,54.62
2022-11-02T13:28:36.438Z,55.11
2022-11-02T13:29:35.054Z,54.46
2022-11-02T13:30:35.038Z,57.04
2022-11-02T13:31:35.061Z,55.59
2022-11-02T13:32:35.027Z,54.62
2022-11-02T13:33:35.079Z,55.91
2022-11-02T13:34:35.055Z,54.95
2022-11-02T13:35:35.006Z,55.75
2022-11-02T13:36:35.042Z,58.01
2022-11-02T13:37:34.982Z,57.36
2022-11-02T13:38:34.932Z,58.49
2022-11-02T13:39:35.046Z,59.30
2022-11-02T13:41:11.233Z,60.42
2022-11-02T13:41:34.983Z,57.69
2022-11-02T13:42:34.921Z,57.04
2022-11-02T13:43:34.938Z,57.20
2022-11-02T13:44:35.056Z,56.40
2022-11-02T13:45:35.153Z,57.04
2022-11-02T13:46:35.001Z,55.59
2022-11-02T13:47:34.987Z,55.59
2022-11-02T13:48:34.966Z,53.98
2022-11-02T13:49:34.974Z,53.82
2022-11-02T13:50:35.005Z,55.11
2022-11-02T13:51:35.031Z,56.24
2022-11-02T13:52:35.053Z,55.75
2022-11-02T13:53:34.890Z,57.20
2022-11-02T13:54:34.894Z,54.30
2022-11-02T13:55:34.878Z,57.52
2022-11-02T13:56:34.954Z,55.11
2022-11-02T13:57:34.829Z,54.30
2022-11-02T13:58:34.855Z,54.30
2022-11-02T13:59:40.490Z,54.46
2022-11-02T14:00:36.929Z,54.30
2022-11-02T14:01:34.885Z,54.62
2022-11-02T14:02:35.009Z,53.66
2022-11-02T14:03:34.864Z,54.30
2022-11-02T14:04:34.946Z,52.05
2022-11-02T14:05:34.917Z,53.98
2022-11-02T14:06:35.035Z,54.46
2022-11-02T14:07:34.866Z,51.56
2022-11-02T14:08:34.929Z,50.92
2022-11-02T14:09:34.831Z,52.85
2022-11-02T14:10:34.949Z,52.05
2022-11-02T14:11:34.825Z,54.79
2022-11-02T14:12:34.863Z,51.40
2022-11-02T14:13:34.806Z,52.21
2022-11-02T14:14:34.845Z,53.66
2022-11-02T14:15:34.812Z,52.85
2022-11-02T14:16:34.802Z,51.56
2022-11-02T14:17:34.776Z,52.21
2022-11-02T14:18:34.774Z,54.62
2022-11-02T14:19:34.719Z,51.72
2022-11-02T14:20:34.683Z,52.37
2022-11-02T14:21:34.685Z,52.53
2022-11-02T14:22:34.699Z,50.27
2022-11-02T14:23:34.694Z,50.60
2022-11-02T14:24:34.657Z,51.56
2022-11-02T14:25:34.759Z,51.88
2022-11-02T14:26:34.796Z,54.30
2022-11-02T14:27:34.804Z,53.17
2022-11-02T14:28:34.763Z,54.46
2022-11-02T14:29:34.780Z,53.98
2022-11-02T14:30:34.726Z,54.79
2022-11-02T14:31:34.794Z,53.98
2022-11-02T14:32:34.738Z,54.95
2022-11-02T14:33:35.210Z,54.30
2022-11-02T14:34:34.835Z,52.85
2022-11-02T14:35:34.789Z,51.40
2022-11-02T14:36:34.673Z,53.33
2022-11-02T14:37:34.674Z,53.98
2022-11-02T14:38:34.710Z,54.79
2022-11-02T14:39:34.704Z,52.05
2022-11-02T14:40:34.663Z,54.95
2022-11-02T14:41:34.607Z,56.88
2022-11-02T14:42:34.582Z,55.11
2022-11-02T14:43:34.520Z,54.46
2022-11-02T14:44:34.579Z,56.07
2022-11-02T14:45:34.786Z,55.59
2022-11-02T14:46:34.486Z,56.40
2022-11-02T14:47:34.612Z,54.30
2022-11-02T14:48:34.539Z,55.59
2022-11-02T14:49:34.758Z,54.79
2022-11-02T14:50:34.565Z,54.30
2022-11-02T14:51:34.578Z,54.95
2022-11-02T14:52:34.630Z,55.91
2022-11-02T14:53:34.512Z,57.04
2022-11-02T14:54:34.616Z,54.95
2022-11-02T14:55:39.764Z,57.52
2022-11-02T14:56:34.600Z,54.95
2022-11-02T14:57:34.478Z,53.66
2022-11-02T14:58:34.688Z,54.46
2022-11-02T14:59:34.588Z,55.43
2022-11-02T15:00:34.575Z,56.40
2022-11-02T15:01:34.480Z,54.46
2022-11-02T15:02:37.325Z,55.59